Time;durP1;ratioP1;P1;durP2;ratioP2;P2;SDS_P1;SDS_P2;PMS_P1;PMS_P2;Temp;Humidity;BMP_temperature;BMP_pressure;BME280_temperature;BME280_humidity;BME280_pressure;Samples;Min_cycle;Max_cycle;Signal;HPM_P1;HPM_P2
2022/06/07 00:00:14;;;;;;;0.67;0.67;;;;;;;;;;5075253;28;20240;-83
2022/06/07 00:02:41;;;;;;;0.80;0.80;;;;;;;;;;5060150;28;20229;-85
2022/06/07 00:05:09;;;;;;;0.63;0.63;;;;;;;;;;5052631;28;20234;-85
2022/06/07 00:07:36;;;;;;;0.70;0.70;;;;;;;;;;5054069;28;20206;-85
2022/06/07 00:10:03;;;;;;;0.63;0.63;;;;;;;;;;5053549;28;20237;-84
2022/06/07 00:12:30;;;;;;;0.90;0.60;;;;;;;;;;5053817;28;20230;-85
2022/06/07 00:14:58;;;;;;;0.70;0.70;;;;;;;;;;5054062;28;20233;-85
2022/06/07 00:17:26;;;;;;;0.87;0.87;;;;;;;;;;5053852;28;20206;-85
2022/06/07 00:19:53;;;;;;;0.87;0.87;;;;;;;;;;5053610;28;20253;-84
2022/06/07 00:22:20;;;;;;;0.60;0.60;;;;;;;;;;5054137;28;20213;-85
2022/06/07 00:24:47;;;;;;;0.77;0.77;;;;;;;;;;5053348;28;20236;-85
2022/06/07 00:27:15;;;;;;;0.80;0.80;;;;;;;;;;5054613;28;20210;-85
2022/06/07 00:29:43;;;;;;;1.70;1.00;;;;;;;;;;5055926;28;20243;-85
2022/06/07 00:32:11;;;;;;;0.73;0.73;;;;;;;;;;5053701;28;20304;-85
2022/06/07 00:34:39;;;;;;;0.80;0.80;;;;;;;;;;5054030;28;20670;-86
2022/06/07 00:37:06;;;;;;;0.77;0.77;;;;;;;;;;5054343;28;20626;-85
2022/06/07 00:39:33;;;;;;;1.43;0.90;;;;;;;;;;5053277;28;20733;-86
2022/06/07 00:42:00;;;;;;;2.40;0.80;;;;;;;;;;5053732;28;20206;-85
2022/06/07 00:44:35;;;;;;;0.60;0.60;;;;;;;;;;5053206;28;20207;-85
2022/06/07 00:47:05;;;;;;;0.70;0.70;;;;;;;;;;5053451;28;20213;-85
2022/06/07 00:49:35;;;;;;;2.30;0.80;;;;;;;;;;5052965;28;20226;-85
2022/06/07 00:52:02;;;;;;;0.80;0.80;;;;;;;;;;5053458;28;20221;-85
2022/06/07 00:54:31;;;;;;;1.43;1.07;;;;;;;;;;5053064;28;20635;-85
2022/06/07 00:56:58;;;;;;;0.90;0.90;;;;;;;;;;5075569;28;20198;-84
2022/06/07 00:59:25;;;;;;;1.57;1.03;;;;;;;;;;5076169;28;20226;-86
2022/06/07 01:01:52;;;;;;;0.80;0.80;;;;;;;;;;5078761;28;20194;-84
2022/06/07 01:04:22;;;;;;;1.00;1.00;;;;;;;;;;5087345;28;20214;-82
2022/06/07 01:12:32;;;;;;;1.00;1.00;;;;;;;;;;5050219;28;20253;-84
2022/06/07 01:15:00;;;;;;;0.83;0.83;;;;;;;;;;5081359;28;20225;-84
2022/06/07 01:17:27;;;;;;;1.70;0.97;;;;;;;;;;5084150;28;20202;-84
2022/06/07 01:19:54;;;;;;;1.30;1.30;;;;;;;;;;5074824;28;20236;-84
2022/06/07 01:22:23;;;;;;;0.73;0.73;;;;;;;;;;5074896;28;20203;-84
2022/06/07 01:24:50;;;;;;;0.80;0.80;;;;;;;;;;5071929;28;20655;-84
2022/06/07 01:27:17;;;;;;;0.90;0.80;;;;;;;;;;5073205;28;20205;-84
2022/06/07 01:29:44;;;;;;;0.70;0.70;;;;;;;;;;5072101;28;20252;-84
2022/06/07 01:32:12;;;;;;;1.80;0.90;;;;;;;;;;5072317;28;20709;-84
2022/06/07 01:34:41;;;;;;;0.80;0.80;;;;;;;;;;5071923;28;20217;-84
2022/06/07 01:37:09;;;;;;;0.87;0.87;;;;;;;;;;5072476;28;20221;-84
2022/06/07 01:42:22;;;;;;;0.77;0.77;;;;;;;;;;5072737;28;20193;-84
2022/06/07 01:44:50;;;;;;;1.00;1.00;;;;;;;;;;5071759;28;20229;-84
2022/06/07 01:47:18;;;;;;;0.90;0.90;;;;;;;;;;5072272;28;20672;-84
2022/06/07 01:49:46;;;;;;;0.77;0.77;;;;;;;;;;5071498;28;20245;-84
2022/06/07 01:52:14;;;;;;;3.80;1.00;;;;;;;;;;5079326;28;20229;-84
2022/06/07 01:54:43;;;;;;;1.00;1.00;;;;;;;;;;5075203;28;20206;-84
2022/06/07 01:57:10;;;;;;;7.40;1.00;;;;;;;;;;5072685;28;20217;-84
2022/06/07 01:59:38;;;;;;;2.20;0.90;;;;;;;;;;5071994;28;20222;-84
2022/06/07 02:02:06;;;;;;;1.03;1.03;;;;;;;;;;5072316;28;20231;-84
2022/06/07 02:04:33;;;;;;;0.70;0.70;;;;;;;;;;5071506;28;20208;-84
2022/06/07 02:07:00;;;;;;;0.80;0.80;;;;;;;;;;5072009;28;20574;-84
2022/06/07 02:09:27;;;;;;;0.90;0.90;;;;;;;;;;5071789;28;20256;-84
2022/06/07 02:11:56;;;;;;;0.90;0.90;;;;;;;;;;5071822;28;20221;-84
2022/06/07 02:14:23;;;;;;;1.00;1.00;;;;;;;;;;5071510;28;20263;-84
2022/06/07 02:16:50;;;;;;;1.87;1.20;;;;;;;;;;5071906;28;20205;-84
2022/06/07 02:19:17;;;;;;;1.10;1.03;;;;;;;;;;5071851;28;20248;-84
2022/06/07 02:21:44;;;;;;;0.90;0.90;;;;;;;;;;5071762;28;20221;-84
2022/06/07 02:24:11;;;;;;;1.30;1.30;;;;;;;;;;5071431;28;20216;-84
2022/06/07 02:26:41;;;;;;;1.00;1.00;;;;;;;;;;5071657;28;20704;-84
2022/06/07 02:29:11;;;;;;;1.00;1.00;;;;;;;;;;5072019;28;20229;-84
2022/06/07 02:31:40;;;;;;;1.00;1.00;;;;;;;;;;5071274;28;20610;-84
2022/06/07 02:34:08;;;;;;;1.37;1.37;;;;;;;;;;5072662;28;20206;-84
2022/06/07 02:36:35;;;;;;;1.00;1.00;;;;;;;;;;5078392;28;20233;-84
2022/06/07 02:39:03;;;;;;;1.30;1.30;;;;;;;;;;5079017;28;20728;-84
2022/06/07 02:41:30;;;;;;;1.10;1.00;;;;;;;;;;5075227;28;20237;-84
2022/06/07 02:43:58;;;;;;;1.00;1.00;;;;;;;;;;5075558;28;20224;-84
2022/06/07 02:46:26;;;;;;;1.00;1.00;;;;;;;;;;5075221;28;20236;-84
2022/06/07 02:48:53;;;;;;;1.27;1.17;;;;;;;;;;5075640;28;20225;-84
2022/06/07 02:51:21;;;;;;;1.37;1.27;;;;;;;;;;5075198;28;20237;-84
2022/06/07 02:53:48;;;;;;;1.30;1.20;;;;;;;;;;5075500;28;20288;-84
2022/06/07 02:56:15;;;;;;;1.07;1.07;;;;;;;;;;5075374;28;20616;-84
2022/06/07 02:58:42;;;;;;;1.17;1.17;;;;;;;;;;5075196;28;20316;-84
2022/06/07 03:01:09;;;;;;;5.30;1.10;;;;;;;;;;5075014;28;20553;-84
2022/06/07 03:03:38;;;;;;;1.07;1.07;;;;;;;;;;5075130;28;20201;-84
2022/06/07 03:06:06;;;;;;;1.30;1.20;;;;;;;;;;5074739;28;20291;-84
2022/06/07 03:08:33;;;;;;;1.83;1.10;;;;;;;;;;5075498;28;20228;-84
2022/06/07 03:11:01;;;;;;;3.17;1.03;;;;;;;;;;5074785;28;20240;-84
2022/06/07 03:13:28;;;;;;;1.13;0.90;;;;;;;;;;5074965;28;20225;-84
2022/06/07 03:15:55;;;;;;;0.87;0.87;;;;;;;;;;5074325;28;20240;-84
2022/06/07 03:18:22;;;;;;;0.90;0.90;;;;;;;;;;5074880;28;20260;-84
2022/06/07 03:20:52;;;;;;;1.20;1.20;;;;;;;;;;5074503;28;20705;-84
2022/06/07 03:23:20;;;;;;;1.70;1.27;;;;;;;;;;5074708;28;20209;-84
2022/06/07 03:25:47;;;;;;;1.00;1.00;;;;;;;;;;5074524;28;20240;-84
2022/06/07 03:28:14;;;;;;;0.93;0.93;;;;;;;;;;5075142;28;20596;-84
2022/06/07 03:30:42;;;;;;;1.10;1.00;;;;;;;;;;5074599;28;20312;-84
2022/06/07 03:33:12;;;;;;;4.10;1.13;;;;;;;;;;5074404;28;20236;-83
2022/06/07 03:35:40;;;;;;;1.50;1.30;;;;;;;;;;5074632;28;20233;-83
2022/06/07 03:38:08;;;;;;;1.37;1.10;;;;;;;;;;5074478;28;20709;-83
2022/06/07 03:40:45;;;;;;;1.03;1.03;;;;;;;;;;5074405;28;20267;-83
2022/06/07 03:43:12;;;;;;;2.10;1.30;;;;;;;;;;5074367;28;20201;-83
2022/06/07 03:45:39;;;;;;;1.30;1.17;;;;;;;;;;5073711;28;20237;-83
2022/06/07 03:48:07;;;;;;;1.70;1.00;;;;;;;;;;5073582;28;20597;-83
2022/06/07 03:50:34;;;;;;;1.20;1.10;;;;;;;;;;5074436;28;20237;-83
2022/06/07 03:53:01;;;;;;;1.63;1.30;;;;;;;;;;5074704;28;20229;-83
2022/06/07 03:55:30;;;;;;;1.90;1.47;;;;;;;;;;5073975;28;20239;-83
2022/06/07 03:57:58;;;;;;;1.37;1.27;;;;;;;;;;5074690;28;20230;-84
2022/06/07 04:00:26;;;;;;;2.17;1.23;;;;;;;;;;5070247;28;20239;-84
2022/06/07 04:02:53;;;;;;;1.23;1.20;;;;;;;;;;5065045;28;20541;-84
2022/06/07 04:05:20;;;;;;;1.43;0.90;;;;;;;;;;5053130;28;20226;-84
2022/06/07 04:10:33;;;;;;;1.13;1.13;;;;;;;;;;5053345;28;20233;-84
2022/06/07 04:13:00;;;;;;;1.37;0.90;;;;;;;;;;5054961;28;20241;-84
2022/06/07 04:15:27;;;;;;;1.50;1.37;;;;;;;;;;5041631;28;20238;-83
2022/06/07 04:17:54;;;;;;;1.20;1.20;;;;;;;;;;5038146;28;20234;-83
2022/06/07 04:20:22;;;;;;;1.47;1.10;;;;;;;;;;5055993;28;20234;-83
2022/06/07 04:22:49;;;;;;;1.20;1.10;;;;;;;;;;5053810;28;20206;-83
2022/06/07 04:25:16;;;;;;;1.20;1.20;;;;;;;;;;5052918;28;20241;-84
2022/06/07 04:27:45;;;;;;;1.10;1.10;;;;;;;;;;5053468;28;20607;-83
2022/06/07 04:30:13;;;;;;;1.43;1.33;;;;;;;;;;5052950;28;20597;-84
2022/06/07 04:32:46;;;;;;;1.20;1.10;;;;;;;;;;5053534;28;20694;-84
2022/06/07 04:35:13;;;;;;;1.00;1.00;;;;;;;;;;5062900;28;20268;-83
2022/06/07 04:37:40;;;;;;;1.10;1.10;;;;;;;;;;5069056;28;20233;-82
2022/06/07 04:40:08;;;;;;;1.07;1.03;;;;;;;;;;5055355;28;20709;-83
2022/06/07 04:42:35;;;;;;;1.20;1.20;;;;;;;;;;5059934;28;20213;-81
2022/06/07 04:45:03;;;;;;;2.90;1.30;;;;;;;;;;5053337;28;20230;-81
2022/06/07 04:47:30;;;;;;;1.37;1.33;;;;;;;;;;5053635;28;20588;-85
2022/06/07 04:49:58;;;;;;;1.10;1.10;;;;;;;;;;5052929;28;20230;-79
2022/06/07 04:52:25;;;;;;;1.17;1.17;;;;;;;;;;5054116;28;20206;-81
2022/06/07 04:54:58;;;;;;;1.20;1.20;;;;;;;;;;5053677;28;20233;-80
2022/06/07 04:57:25;;;;;;;2.40;1.23;;;;;;;;;;5054370;28;20186;-79
2022/06/07 04:59:53;;;;;;;1.63;1.50;;;;;;;;;;5068834;28;20214;-83
2022/06/07 05:02:22;;;;;;;1.40;1.30;;;;;;;;;;5074185;28;20217;-83
2022/06/07 05:04:49;;;;;;;1.23;1.23;;;;;;;;;;5059016;28;20600;-83
2022/06/07 05:07:16;;;;;;;1.33;1.20;;;;;;;;;;5055850;28;20206;-80
2022/06/07 05:09:43;;;;;;;1.13;1.13;;;;;;;;;;5053858;28;20237;-81
2022/06/07 05:12:11;;;;;;;1.13;1.13;;;;;;;;;;5053496;28;20198;-80
2022/06/07 05:14:38;;;;;;;1.20;1.10;;;;;;;;;;5053323;28;20206;-81
2022/06/07 05:17:05;;;;;;;1.30;1.30;;;;;;;;;;5053972;28;20190;-80
2022/06/07 05:19:34;;;;;;;1.30;1.20;;;;;;;;;;5053022;28;20236;-81
2022/06/07 05:22:01;;;;;;;1.77;1.50;;;;;;;;;;5053549;28;20240;-80
2022/06/07 05:24:28;;;;;;;1.43;1.33;;;;;;;;;;5052403;28;20693;-79
2022/06/07 05:26:56;;;;;;;1.03;1.03;;;;;;;;;;5052789;28;20282;-79
2022/06/07 05:29:26;;;;;;;1.60;1.37;;;;;;;;;;5052793;28;20234;-80
2022/06/07 05:31:53;;;;;;;1.40;1.30;;;;;;;;;;5053232;28;20213;-79
2022/06/07 05:34:20;;;;;;;1.00;1.00;;;;;;;;;;5052050;28;20225;-80
2022/06/07 05:36:48;;;;;;;1.70;1.13;;;;;;;;;;5052918;28;20209;-80
2022/06/07 05:39:20;;;;;;;1.43;1.37;;;;;;;;;;5052611;28;20274;-79
2022/06/07 05:41:47;;;;;;;1.43;1.27;;;;;;;;;;5052383;28;20312;-81
2022/06/07 05:44:14;;;;;;;1.17;1.17;;;;;;;;;;5053033;28;20611;-83
2022/06/07 05:46:42;;;;;;;1.40;1.27;;;;;;;;;;5052082;28;20238;-80
2022/06/07 05:49:09;;;;;;;4.53;1.07;;;;;;;;;;5052576;28;20222;-80
2022/06/07 05:51:37;;;;;;;1.27;0.90;;;;;;;;;;5052522;28;20249;-80
2022/06/07 05:54:05;;;;;;;2.53;0.97;;;;;;;;;;5052971;28;20226;-80
2022/06/07 05:56:32;;;;;;;0.87;0.87;;;;;;;;;;5052082;28;20237;-81
2022/06/07 05:59:00;;;;;;;1.13;1.03;;;;;;;;;;5052589;28;20230;-81
2022/06/07 06:01:28;;;;;;;1.13;1.13;;;;;;;;;;5052041;28;20736;-82
2022/06/07 06:03:55;;;;;;;1.20;1.10;;;;;;;;;;5032398;28;20199;-80
2022/06/07 06:06:24;;;;;;;1.60;1.20;;;;;;;;;;5033424;28;20241;-80
2022/06/07 06:11:37;;;;;;;0.97;0.90;;;;;;;;;;5035469;28;20632;-82
2022/06/07 06:14:05;;;;;;;0.83;0.83;;;;;;;;;;5036558;28;20226;-80
2022/06/07 06:16:32;;;;;;;0.77;0.77;;;;;;;;;;5036324;28;20238;-83
2022/06/07 06:18:59;;;;;;;0.80;0.80;;;;;;;;;;5037489;28;20241;-80
2022/06/07 06:21:28;;;;;;;0.70;0.70;;;;;;;;;;5037157;28;20238;-80
2022/06/07 06:23:57;;;;;;;0.70;0.70;;;;;;;;;;5038074;28;20202;-80
2022/06/07 06:26:25;;;;;;;0.80;0.80;;;;;;;;;;5038204;28;20295;-81
2022/06/07 06:28:53;;;;;;;1.67;0.93;;;;;;;;;;5055048;28;20258;-81
2022/06/07 06:31:20;;;;;;;1.05;0.82;;;;;;;;;;5055989;28;20694;-80
2022/06/07 06:33:49;;;;;;;0.90;0.90;;;;;;;;;;5056278;28;20743;-80
2022/06/07 06:36:17;;;;;;;0.70;0.70;;;;;;;;;;5055639;28;20241;-82
2022/06/07 06:38:44;;;;;;;0.82;0.82;;;;;;;;;;5056630;28;20230;-83
2022/06/07 06:41:12;;;;;;;1.17;0.98;;;;;;;;;;5056396;28;20319;-82
2022/06/07 06:43:39;;;;;;;0.80;0.80;;;;;;;;;;5058486;28;20202;-81
2022/06/07 06:46:09;;;;;;;0.98;0.98;;;;;;;;;;5056763;28;20604;-83
2022/06/07 06:48:36;;;;;;;1.17;1.00;;;;;;;;;;5057134;28;20230;-80
2022/06/07 06:51:04;;;;;;;3.00;0.63;;;;;;;;;;5057295;28;20242;-83
2022/06/07 06:53:32;;;;;;;0.70;0.70;;;;;;;;;;5058825;28;20359;-80
2022/06/07 06:55:59;;;;;;;2.30;0.90;;;;;;;;;;5057047;28;20245;-81
2022/06/07 06:58:26;;;;;;;0.70;0.70;;;;;;;;;;5058276;28;20299;-81
2022/06/07 07:01:00;;;;;;;0.70;0.70;;;;;;;;;;5057830;28;20233;-83
2022/06/07 07:03:29;;;;;;;0.77;0.77;;;;;;;;;;5058214;28;20209;-81
2022/06/07 07:05:56;;;;;;;1.30;0.70;;;;;;;;;;5068315;22;20234;-78
2022/06/07 07:08:24;;;;;;;1.88;0.95;;;;;;;;;;5044113;28;20222;-80
2022/06/07 07:10:51;;;;;;;2.25;1.13;;;;;;;;;;5035825;28;20238;-78
2022/06/07 07:13:18;;;;;;;2.05;0.70;;;;;;;;;;5035636;28;20710;-78
2022/06/07 07:15:47;;;;;;;0.95;0.95;;;;;;;;;;5034836;28;20242;-78
2022/06/07 07:18:14;;;;;;;0.82;0.82;;;;;;;;;;5036315;28;20234;-77
2022/06/07 07:20:43;;;;;;;0.52;0.52;;;;;;;;;;5036205;28;20238;-80
2022/06/07 07:23:10;;;;;;;0.80;0.80;;;;;;;;;;5036932;28;20697;-80
2022/06/07 07:25:37;;;;;;;0.70;0.70;;;;;;;;;;5034439;28;20249;-78
2022/06/07 07:28:04;;;;;;;1.08;0.98;;;;;;;;;;5028139;28;20210;-78
2022/06/07 07:30:31;;;;;;;0.88;0.88;;;;;;;;;;5035370;28;20245;-78
2022/06/07 07:32:58;;;;;;;0.80;0.80;;;;;;;;;;5035469;28;20211;-80
2022/06/07 07:35:26;;;;;;;0.98;0.88;;;;;;;;;;5034918;28;20649;-79
2022/06/07 07:37:54;;;;;;;0.57;0.47;;;;;;;;;;5035767;28;20207;-79
2022/06/07 07:40:21;;;;;;;0.73;0.73;;;;;;;;;;5036213;28;20231;-80
2022/06/07 07:42:48;;;;;;;0.40;0.40;;;;;;;;;;5031343;28;20203;-79
2022/06/07 07:45:17;;;;;;;0.85;0.85;;;;;;;;;;5034221;28;20607;-78
2022/06/07 07:47:44;;;;;;;0.75;0.73;;;;;;;;;;5035858;28;20206;-79
2022/06/07 07:50:12;;;;;;;0.60;0.60;;;;;;;;;;5034700;28;20238;-79
2022/06/07 07:52:39;;;;;;;0.60;0.60;;;;;;;;;;5031222;28;20213;-79
2022/06/07 07:55:08;;;;;;;3.00;0.88;;;;;;;;;;5016299;28;20243;-79
2022/06/07 07:57:35;;;;;;;0.75;0.70;;;;;;;;;;5030650;28;20320;-78
2022/06/07 08:00:02;;;;;;;0.70;0.60;;;;;;;;;;5033865;28;20242;-78
2022/06/07 08:02:29;;;;;;;0.52;0.52;;;;;;;;;;5047819;28;20597;-79
2022/06/07 08:04:56;;;;;;;0.47;0.45;;;;;;;;;;5053888;28;20229;-78
2022/06/07 08:07:23;;;;;;;0.60;0.50;;;;;;;;;;5053519;28;20234;-78
2022/06/07 08:09:50;;;;;;;0.75;0.52;;;;;;;;;;5039329;28;20234;-79
2022/06/07 08:12:19;;;;;;;0.68;0.68;;;;;;;;;;5034517;28;20222;-79
2022/06/07 08:14:46;;;;;;;0.55;0.55;;;;;;;;;;5032129;28;20289;-78
2022/06/07 08:17:13;;;;;;;1.63;0.57;;;;;;;;;;5033388;28;20726;-79
2022/06/07 08:19:40;;;;;;;0.52;0.52;;;;;;;;;;5033607;28;20713;-80
2022/06/07 08:22:09;;;;;;;0.40;0.40;;;;;;;;;;5034708;28;20678;-78
2022/06/07 08:24:36;;;;;;;0.70;0.68;;;;;;;;;;5032514;28;20269;-80
2022/06/07 08:27:04;;;;;;;1.05;0.73;;;;;;;;;;5034003;28;20233;-79
2022/06/07 08:29:32;;;;;;;0.43;0.43;;;;;;;;;;5033008;28;20707;-79
2022/06/07 08:31:59;;;;;;;0.55;0.55;;;;;;;;;;5033566;28;20705;-78
2022/06/07 08:39:56;;;;;;;0.70;0.70;;;;;;;;;;5043302;28;20337;-79
2022/06/07 08:42:26;;;;;;;0.80;0.80;;;;;;;;;;5026882;28;20238;-79
2022/06/07 08:44:56;;;;;;;1.65;0.88;;;;;;;;;;5024600;28;20238;-79
2022/06/07 08:47:27;;;;;;;0.63;0.55;;;;;;;;;;5035574;28;20223;-79
2022/06/07 08:49:55;;;;;;;0.65;0.65;;;;;;;;;;5035241;28;20222;-79
2022/06/07 08:52:26;;;;;;;1.05;0.65;;;;;;;;;;5035167;28;20647;-79
2022/06/07 08:54:53;;;;;;;0.77;0.77;;;;;;;;;;5034062;28;20333;-79
2022/06/07 08:57:22;;;;;;;0.70;0.70;;;;;;;;;;5032205;28;20223;-80
2022/06/07 08:59:50;;;;;;;0.50;0.50;;;;;;;;;;5035162;28;20230;-79
2022/06/07 09:02:32;;;;;;;0.40;0.40;;;;;;;;;;5045731;28;20201;-80
2022/06/07 09:05:00;;;;;;;0.55;0.40;;;;;;;;;;4999774;28;20236;-79
2022/06/07 09:07:27;;;;;;;0.95;0.47;;;;;;;;;;5054036;28;20264;-79
2022/06/07 09:12:55;;;;;;;0.43;0.43;;;;;;;;;;5053646;28;20284;-79
2022/06/07 09:15:25;;;;;;;1.02;0.93;;;;;;;;;;5053990;28;20604;-79
2022/06/07 09:17:57;;;;;;;0.82;0.73;;;;;;;;;;5054099;28;20210;-78
2022/06/07 09:20:27;;;;;;;0.32;0.32;;;;;;;;;;5053380;28;20233;-79
2022/06/07 09:22:57;;;;;;;0.55;0.55;;;;;;;;;;5053268;28;20225;-79
2022/06/07 09:25:26;;;;;;;1.45;0.60;;;;;;;;;;5053848;28;20239;-79
2022/06/07 09:27:53;;;;;;;0.50;0.50;;;;;;;;;;5055225;28;20673;-80
2022/06/07 09:30:23;;;;;;;0.55;0.30;;;;;;;;;;5041296;28;20847;-79
2022/06/07 09:32:51;;;;;;;0.82;0.55;;;;;;;;;;5034829;28;20206;-79
2022/06/07 09:35:21;;;;;;;0.55;0.50;;;;;;;;;;5032541;28;20239;-81
2022/06/07 09:37:51;;;;;;;0.77;0.28;;;;;;;;;;5036647;28;20340;-80
2022/06/07 09:40:31;;;;;;;0.20;0.20;;;;;;;;;;5035200;28;20238;-80
2022/06/07 09:42:59;;;;;;;0.30;0.30;;;;;;;;;;5034247;28;20761;-79
2022/06/07 09:48:32;;;;;;;0.40;0.40;;;;;;;;;;5027828;28;20198;-79
2022/06/07 09:51:01;;;;;;;0.65;0.47;;;;;;;;;;5032840;28;20234;-80
2022/06/07 09:53:35;;;;;;;0.47;0.30;;;;;;;;;;5032963;28;20215;-79
2022/06/07 09:56:06;;;;;;;0.40;0.40;;;;;;;;;;5033164;28;20248;-80
2022/06/07 09:58:41;;;;;;;0.60;0.47;;;;;;;;;;5034086;28;20214;-79
2022/06/07 10:01:13;;;;;;;0.13;0.13;;;;;;;;;;5034328;28;20287;-80
2022/06/07 10:03:43;;;;;;;0.30;0.30;;;;;;;;;;5034606;28;20736;-80
2022/06/07 10:06:18;;;;;;;0.98;0.32;;;;;;;;;;5034326;28;20321;-79
2022/06/07 10:08:52;;;;;;;0.35;0.30;;;;;;;;;;5035952;28;20190;-81
2022/06/07 10:11:22;;;;;;;0.45;0.45;;;;;;;;;;5035143;28;20301;-79
2022/06/07 10:13:56;;;;;;;0.85;0.40;;;;;;;;;;5033970;28;20213;-80
2022/06/07 10:16:30;;;;;;;0.45;0.45;;;;;;;;;;5034179;28;20663;-79
2022/06/07 10:19:02;;;;;;;0.40;0.38;;;;;;;;;;5034606;28;20187;-80
2022/06/07 10:21:44;;;;;;;0.40;0.40;;;;;;;;;;5034398;28;20325;-79
2022/06/07 10:24:22;;;;;;;0.82;0.50;;;;;;;;;;5021504;28;20207;-81
2022/06/07 10:27:00;;;;;;;0.20;0.20;;;;;;;;;;5034012;28;20636;-80
2022/06/07 10:29:36;;;;;;;1.00;0.52;;;;;;;;;;5036359;28;20195;-80
2022/06/07 10:32:08;;;;;;;0.52;0.40;;;;;;;;;;5037193;28;20211;-81
2022/06/07 10:34:37;;;;;;;0.95;0.52;;;;;;;;;;5037691;28;20326;-81
2022/06/07 10:37:09;;;;;;;0.10;0.10;;;;;;;;;;5038206;28;20234;-81
2022/06/07 10:39:45;;;;;;;0.40;0.38;;;;;;;;;;5036728;28;20206;-79
2022/06/07 10:42:18;;;;;;;0.65;0.65;;;;;;;;;;5037234;28;20280;-80
2022/06/07 10:44:47;;;;;;;0.40;0.40;;;;;;;;;;5037072;28;20234;-80
2022/06/07 10:47:19;;;;;;;0.50;0.50;;;;;;;;;;5037032;28;20227;-79
2022/06/07 10:49:49;;;;;;;0.20;0.20;;;;;;;;;;5035991;28;20231;-79
2022/06/07 10:52:24;;;;;;;0.95;0.60;;;;;;;;;;5035823;28;20211;-81
2022/06/07 10:54:58;;;;;;;0.47;0.40;;;;;;;;;;5032035;28;20241;-79
2022/06/07 10:57:31;;;;;;;0.30;0.30;;;;;;;;;;5037642;28;20234;-79
2022/06/07 10:59:59;;;;;;;0.20;0.20;;;;;;;;;;5038410;28;20234;-79
2022/06/07 11:02:31;;;;;;;0.63;0.57;;;;;;;;;;5039276;28;20207;-79
2022/06/07 11:10:37;;;;;;;0.57;0.55;;;;;;;;;;5039707;28;20618;-81
2022/06/07 11:13:16;;;;;;;0.70;0.50;;;;;;;;;;5040885;28;20285;-80
2022/06/07 11:15:47;;;;;;;0.28;0.20;;;;;;;;;;5041615;28;20234;-81
2022/06/07 11:18:17;;;;;;;0.32;0.30;;;;;;;;;;5041331;28;20299;-80
2022/06/07 11:20:49;;;;;;;1.42;0.60;;;;;;;;;;5039786;28;20805;-83
2022/06/07 11:23:18;;;;;;;0.30;0.30;;;;;;;;;;5041907;28;20229;-80
2022/06/07 11:25:59;;;;;;;0.30;0.30;;;;;;;;;;5040624;28;20745;-81
2022/06/07 11:28:27;;;;;;;0.63;0.63;;;;;;;;;;5040849;28;20709;-80
2022/06/07 11:30:54;;;;;;;0.60;0.60;;;;;;;;;;5039646;28;20242;-81
2022/06/07 11:33:32;;;;;;;0.63;0.63;;;;;;;;;;5032436;28;20258;-81
2022/06/07 11:36:08;;;;;;;1.00;0.70;;;;;;;;;;5038741;28;20288;-81
2022/06/07 11:38:36;;;;;;;0.63;0.40;;;;;;;;;;5039952;28;20229;-80
2022/06/07 11:41:40;;;;;;;0.60;0.60;;;;;;;;;;5039128;28;20622;-80
2022/06/07 11:44:22;;;;;;;0.40;0.32;;;;;;;;;;5039468;28;20297;-79
2022/06/07 11:46:57;;;;;;;0.43;0.43;;;;;;;;;;5040501;28;20280;-80
2022/06/07 11:49:39;;;;;;;0.30;0.30;;;;;;;;;;5039928;28;20214;-81
2022/06/07 11:52:22;;;;;;;0.50;0.50;;;;;;;;;;5040847;28;20497;-80
2022/06/07 11:54:53;;;;;;;0.30;0.30;;;;;;;;;;5038914;28;20257;-81
2022/06/07 11:57:22;;;;;;;0.30;0.30;;;;;;;;;;5039485;28;20607;-80
2022/06/07 11:59:51;;;;;;;0.52;0.47;;;;;;;;;;5041089;28;20260;-81
2022/06/07 12:02:28;;;;;;;0.70;0.60;;;;;;;;;;5043119;28;20733;-82
2022/06/07 12:04:58;;;;;;;0.45;0.45;;;;;;;;;;5039904;28;20234;-81
2022/06/07 12:07:32;;;;;;;0.47;0.47;;;;;;;;;;5042454;28;20235;-80
2022/06/07 12:10:02;;;;;;;0.22;0.22;;;;;;;;;;5039922;28;20321;-82
2022/06/07 12:12:32;;;;;;;0.63;0.40;;;;;;;;;;5041281;28;20206;-80
2022/06/07 12:15:03;;;;;;;0.55;0.55;;;;;;;;;;5039222;28;20325;-82
2022/06/07 12:17:32;;;;;;;0.88;0.40;;;;;;;;;;5040481;28;20298;-80
2022/06/07 12:19:59;;;;;;;0.80;0.47;;;;;;;;;;5041408;28;20230;-79
2022/06/07 12:22:30;;;;;;;0.20;0.20;;;;;;;;;;5041374;28;20229;-81
2022/06/07 12:24:58;;;;;;;0.88;0.52;;;;;;;;;;5041389;28;20254;-81
2022/06/07 12:27:30;;;;;;;0.38;0.38;;;;;;;;;;5041660;28;20238;-80
2022/06/07 12:30:01;;;;;;;0.30;0.30;;;;;;;;;;5040970;28;20238;-81
2022/06/07 12:32:30;;;;;;;0.75;0.32;;;;;;;;;;5041551;28;20202;-81
2022/06/07 12:35:08;;;;;;;1.42;0.52;;;;;;;;;;5040352;28;20297;-80
2022/06/07 12:37:35;;;;;;;0.40;0.40;;;;;;;;;;5041953;28;20210;-81
2022/06/07 12:40:02;;;;;;;0.45;0.45;;;;;;;;;;5040054;28;20230;-80
2022/06/07 12:42:32;;;;;;;0.52;0.52;;;;;;;;;;5038234;28;20294;-79
2022/06/07 12:45:00;;;;;;;0.55;0.55;;;;;;;;;;5037289;28;20301;-80
2022/06/07 12:47:28;;;;;;;0.47;0.47;;;;;;;;;;5038621;28;20304;-80
2022/06/07 12:49:55;;;;;;;0.30;0.30;;;;;;;;;;5038406;28;20292;-80
2022/06/07 12:52:25;;;;;;;0.55;0.50;;;;;;;;;;5037544;28;20769;-83
2022/06/07 12:54:54;;;;;;;0.30;0.30;;;;;;;;;;5037198;28;20647;-80
2022/06/07 12:57:22;;;;;;;0.50;0.45;;;;;;;;;;5039048;28;20694;-80
2022/06/07 12:59:54;;;;;;;0.60;0.57;;;;;;;;;;5036295;28;20292;-82
2022/06/07 13:02:23;;;;;;;1.65;0.50;;;;;;;;;;5050547;28;20213;-80
2022/06/07 13:04:52;;;;;;;0.30;0.30;;;;;;;;;;5058758;28;20324;-81
2022/06/07 13:07:22;;;;;;;1.30;0.88;;;;;;;;;;5059788;28;20714;-82
2022/06/07 13:09:53;;;;;;;0.30;0.30;;;;;;;;;;5059703;28;20235;-81
2022/06/07 13:12:23;;;;;;;0.35;0.35;;;;;;;;;;5058458;28;20209;-81
2022/06/07 13:14:52;;;;;;;0.65;0.45;;;;;;;;;;5056943;28;20233;-80
2022/06/07 13:17:28;;;;;;;0.43;0.43;;;;;;;;;;5057362;28;20230;-80
2022/06/07 13:19:55;;;;;;;0.50;0.50;;;;;;;;;;5050108;28;20226;-81
2022/06/07 13:22:23;;;;;;;0.70;0.47;;;;;;;;;;5035746;28;20207;-81
2022/06/07 13:24:53;;;;;;;0.47;0.47;;;;;;;;;;5034854;28;20240;-81
2022/06/07 13:27:29;;;;;;;0.50;0.40;;;;;;;;;;5036302;28;20254;-82
2022/06/07 13:29:56;;;;;;;0.32;0.32;;;;;;;;;;5035762;28;20233;-81
2022/06/07 13:32:25;;;;;;;0.85;0.50;;;;;;;;;;5036873;28;20573;-81
2022/06/07 13:34:53;;;;;;;0.88;0.65;;;;;;;;;;5035494;28;20587;-81
2022/06/07 13:37:21;;;;;;;2.65;0.40;;;;;;;;;;5035739;28;20409;-80
2022/06/07 13:40:02;;;;;;;0.30;0.30;;;;;;;;;;5036067;28;20233;-81
2022/06/07 13:42:30;;;;;;;0.73;0.55;;;;;;;;;;5036837;28;20242;-81
2022/06/07 13:45:04;;;;;;;0.60;0.60;;;;;;;;;;5035039;28;20234;-80
2022/06/07 13:47:32;;;;;;;3.03;0.63;;;;;;;;;;5034642;28;20381;-79
2022/06/07 13:55:46;;;;;;;0.50;0.40;;;;;;;;;;5034447;28;20333;-80
2022/06/07 13:58:13;;;;;;;1.30;0.63;;;;;;;;;;5034612;28;20191;-80
2022/06/07 14:00:41;;;;;;;0.30;0.30;;;;;;;;;;5033290;28;20242;-80
2022/06/07 14:03:15;;;;;;;0.40;0.40;;;;;;;;;;5033459;28;20203;-81
2022/06/07 14:05:42;;;;;;;0.30;0.30;;;;;;;;;;5032193;28;20270;-80
2022/06/07 14:08:13;;;;;;;0.40;0.40;;;;;;;;;;5032521;28;20191;-80
2022/06/07 14:10:40;;;;;;;0.30;0.30;;;;;;;;;;5031253;28;20238;-80
2022/06/07 14:13:09;;;;;;;0.50;0.50;;;;;;;;;;5031855;28;20206;-79
2022/06/07 14:15:36;;;;;;;0.65;0.60;;;;;;;;;;5030848;28;20236;-79
2022/06/07 14:18:03;;;;;;;2.38;1.15;;;;;;;;;;5032349;28;20687;-80
2022/06/07 14:20:32;;;;;;;1.40;1.30;;;;;;;;;;5032297;28;20299;-79
2022/06/07 14:22:59;;;;;;;1.23;1.13;;;;;;;;;;5031174;28;20741;-80
2022/06/07 14:25:28;;;;;;;1.17;0.60;;;;;;;;;;5032846;28;20678;-80
2022/06/07 14:27:56;;;;;;;0.60;0.60;;;;;;;;;;5040853;28;20265;-80
2022/06/07 14:30:25;;;;;;;0.68;0.35;;;;;;;;;;5032858;28;20587;-80
2022/06/07 14:32:53;;;;;;;0.47;0.47;;;;;;;;;;5036411;28;20210;-80
2022/06/07 14:35:22;;;;;;;0.40;0.40;;;;;;;;;;5036180;28;20226;-80
2022/06/07 14:37:50;;;;;;;0.90;0.85;;;;;;;;;;5036488;28;20567;-80
2022/06/07 14:40:19;;;;;;;1.45;1.38;;;;;;;;;;5037986;28;20602;-80
2022/06/07 14:42:46;;;;;;;0.70;0.70;;;;;;;;;;5037213;28;20203;-80
2022/06/07 14:45:15;;;;;;;0.70;0.70;;;;;;;;;;5039547;28;20997;-81
2022/06/07 14:47:44;;;;;;;1.75;0.57;;;;;;;;;;5038777;28;20206;-82
2022/06/07 14:50:13;;;;;;;0.40;0.40;;;;;;;;;;5039105;28;20249;-81
2022/06/07 14:52:40;;;;;;;0.60;0.50;;;;;;;;;;5039738;28;20256;-80
2022/06/07 14:55:07;;;;;;;0.98;0.50;;;;;;;;;;5036931;28;20230;-82
2022/06/07 14:57:35;;;;;;;1.15;0.55;;;;;;;;;;5037259;28;20203;-80
2022/06/07 15:00:02;;;;;;;0.90;0.60;;;;;;;;;;5036035;28;20248;-80
2022/06/07 15:02:32;;;;;;;0.98;0.65;;;;;;;;;;5017771;28;20203;-80
2022/06/07 15:05:02;;;;;;;0.90;0.90;;;;;;;;;;5016801;28;20257;-81
2022/06/07 15:07:30;;;;;;;0.50;0.50;;;;;;;;;;5036966;28;20246;-80
2022/06/07 15:09:57;;;;;;;1.17;0.85;;;;;;;;;;5016878;28;20255;-81
2022/06/07 15:12:25;;;;;;;0.68;0.68;;;;;;;;;;5017821;28;20200;-82
2022/06/07 15:14:53;;;;;;;0.50;0.50;;;;;;;;;;5018893;28;20235;-80
2022/06/07 15:17:21;;;;;;;0.80;0.80;;;;;;;;;;5019883;28;20602;-78
2022/06/07 15:19:49;;;;;;;0.50;0.50;;;;;;;;;;5017726;28;20263;-80
2022/06/07 15:22:18;;;;;;;0.50;0.50;;;;;;;;;;5026918;28;20221;-81
2022/06/07 15:24:45;;;;;;;2.17;0.70;;;;;;;;;;5034489;28;20244;-81
2022/06/07 15:27:13;;;;;;;0.40;0.40;;;;;;;;;;5039112;28;20226;-80
2022/06/07 15:29:53;;;;;;;1.05;0.73;;;;;;;;;;5037550;28;20230;-81